KLOR/LOR METAR and TAF weather

Enter ICAO airport designator
Station Type Date Time Source
KLOR METAR 2021/04/14 20:34 UTC NOAA

KLOR 142034Z AUTO 25012G18KT 9SM FEW046 SCT070 OVC090 23/16 A3008 RMK AO2 SLPNO 51005


Station Type Date Time Source
KLOR Decoded METAR 2021/04/14 20:34 UTC NOAA

Fort Rucker, Lowe Army Heliport, AL, United States (KLOR) 31-21-32N 085-44-54W 93M
Apr 14, 2021 - 04:34 PM EDT / 2021.04.14 2034 UTC
Wind: from the WSW (250 degrees) at 14 MPH (12 KT) gusting to 21 MPH (18 KT):0
Visibility: 9 mile(s):0
Sky conditions: overcast
Temperature: 73 F (23 C)
Dew Point: 60 F (16 C)
Relative Humidity: 64%
Pressure (altimeter): 30.08 in. Hg (1018 hPa)
Pressure tendency: 0.01 inches (0.5 hPa) higher than three hours ago
ob: KLOR 142034Z AUTO 25012G18KT 9SM FEW046 SCT070 OVC090 23/16 A3008 RMK AO2 SLPNO 51005
cycle: 20

Station Type Date Time Source
KLOR TAF UTC NOAA

Error!

Example: see airport list